createdAt,value
2023-11-29T00:00:22.979Z,99019.75
2023-11-29T00:02:49.955Z,99028.28
2023-11-29T00:05:24.118Z,99018.34
2023-11-29T00:07:53.999Z,99021.72
2023-11-29T00:10:20.871Z,99023.47
2023-11-29T00:12:47.704Z,99027.81
2023-11-29T00:15:14.608Z,99034.75
2023-11-29T00:17:41.933Z,99025.69
2023-11-29T00:20:09.482Z,99028.28
2023-11-29T00:22:36.614Z,99030.03
2023-11-29T00:25:03.627Z,99030.19
2023-11-29T00:27:30.617Z,99026.84
2023-11-29T00:29:57.515Z,99026.84
2023-11-29T00:32:24.487Z,99029.63
2023-11-29T00:34:51.619Z,99030.50
2023-11-29T00:37:18.554Z,99026.38
2023-11-29T00:39:45.519Z,99034.75
2023-11-29T00:42:12.538Z,99027.31
2023-11-29T00:44:40.098Z,99029.16
2023-11-29T00:47:07.146Z,99037.75
2023-11-29T00:49:34.336Z,99041.22
2023-11-29T00:52:01.330Z,99033.63
2023-11-29T00:54:28.751Z,99035.44
2023-11-29T00:56:55.630Z,99036.31
2023-11-29T00:59:22.582Z,99036.47
2023-11-29T01:01:49.464Z,99040.72
2023-11-29T01:04:16.323Z,99043.41
2023-11-29T01:06:43.214Z,99040.09
2023-11-29T01:09:11.305Z,99040.09
2023-11-29T01:11:38.206Z,99038.22
2023-11-29T01:14:05.316Z,99039.97
2023-11-29T01:16:32.610Z,99040.09
2023-11-29T01:19:01.023Z,99041.91
2023-11-29T01:21:32.380Z,99041.84
2023-11-29T01:24:02.562Z,99035.97
2023-11-29T01:26:30.536Z,99043.41
2023-11-29T01:28:57.553Z,99043.41
2023-11-29T01:31:27.746Z,99047.66
2023-11-29T01:33:55.690Z,99052.00
2023-11-29T01:36:22.934Z,99051.94
2023-11-29T01:38:51.340Z,99050.06
2023-11-29T01:41:18.287Z,99055.63
2023-11-29T01:43:45.345Z,99051.31
2023-11-29T01:46:12.550Z,99058.09
2023-11-29T01:48:40.064Z,99059.81
2023-11-29T01:51:07.910Z,99062.19
2023-11-29T01:53:39.160Z,99063.06
2023-11-29T01:56:07.331Z,99061.41
2023-11-29T01:58:34.230Z,99059.03
2023-11-29T02:01:01.528Z,99061.41
2023-11-29T02:03:29.550Z,99059.75
2023-11-29T02:05:56.580Z,99057.94
2023-11-29T02:08:25.070Z,99053.59
2023-11-29T02:10:52.181Z,99065.34
2023-11-29T02:13:19.397Z,99066.16
2023-11-29T02:15:46.603Z,99056.06
2023-11-29T02:18:15.243Z,99055.34
2023-11-29T02:20:42.487Z,99059.53
2023-11-29T02:23:30.432Z,99054.59
2023-11-29T02:25:57.583Z,99056.19
2023-11-29T02:28:24.419Z,99064.69
2023-11-29T02:30:51.342Z,99059.81
2023-11-29T02:33:18.315Z,99055.63
2023-11-29T02:35:45.192Z,99057.22
2023-11-29T02:38:12.172Z,99064.19
2023-11-29T02:40:39.086Z,99063.28
2023-11-29T02:43:05.921Z,99063.44
2023-11-29T02:45:33.865Z,99061.88
2023-11-29T02:48:00.977Z,99073.72
2023-11-29T02:50:27.945Z,99067.09
2023-11-29T02:52:54.841Z,99071.31
2023-11-29T02:55:21.707Z,99068.66
2023-11-29T02:57:48.543Z,99063.63
2023-11-29T03:00:15.590Z,99066.91
2023-11-29T03:02:42.827Z,99061.09
2023-11-29T03:05:09.798Z,99068.59
2023-11-29T03:07:37.103Z,99056.66
2023-11-29T03:10:04.132Z,99059.81
2023-11-29T03:12:31.360Z,99062.19
2023-11-29T03:14:58.339Z,99063.69
2023-11-29T03:17:25.680Z,99056.91
2023-11-29T03:19:52.569Z,99059.66
2023-11-29T03:22:19.439Z,99057.38
2023-11-29T03:24:47.662Z,99060.16
2023-11-29T03:27:14.568Z,99060.16
2023-11-29T03:29:41.546Z,99056.81
2023-11-29T03:32:08.621Z,99065.34
2023-11-29T03:34:35.478Z,99063.63
2023-11-29T03:37:02.591Z,99058.56
2023-11-29T03:39:29.661Z,99056.81
2023-11-29T03:41:56.826Z,99067.56
2023-11-29T03:44:23.837Z,99073.38
2023-11-29T03:46:50.744Z,99075.13
2023-11-29T03:49:17.755Z,99073.38
2023-11-29T03:51:47.295Z,99075.69
2023-11-29T03:54:16.159Z,99074.31
2023-11-29T03:56:43.050Z,99077.19
2023-11-29T03:59:09.932Z,99074.66
2023-11-29T04:01:36.951Z,99088.06
2023-11-29T04:04:04.281Z,99084.59
2023-11-29T04:06:31.183Z,99090.41
2023-11-29T04:08:58.072Z,99090.28
2023-11-29T04:11:25.099Z,99096.00
2023-11-29T04:13:51.946Z,99109.53
2023-11-29T04:16:28.879Z,99106.28
2023-11-29T04:18:55.926Z,99105.88
2023-11-29T04:21:28.016Z,99105.88
2023-11-29T04:23:55.848Z,99105.88
2023-11-29T04:26:29.517Z,99112.81
2023-11-29T04:28:57.226Z,99110.94
2023-11-29T04:31:25.512Z,99113.47
2023-11-29T04:33:52.793Z,99115.03
2023-11-29T04:36:20.046Z,99119.28
2023-11-29T04:38:47.817Z,99117.47
2023-11-29T04:41:14.956Z,99125.81
2023-11-29T04:43:41.843Z,99125.72
2023-11-29T04:46:12.974Z,99123.22
2023-11-29T04:48:41.209Z,99122.25
2023-11-29T04:51:09.623Z,99122.25
2023-11-29T04:53:37.559Z,99118.78
2023-11-29T04:56:06.759Z,99125.59
2023-11-29T04:58:40.685Z,99122.81
2023-11-29T05:01:13.488Z,99133.75
2023-11-29T05:03:41.138Z,99131.88
2023-11-29T05:06:11.059Z,99136.66
2023-11-29T05:08:38.078Z,99139.03
2023-11-29T05:11:06.508Z,99132.94
2023-11-29T05:13:33.539Z,99132.78
2023-11-29T05:16:00.933Z,99146.00
2023-11-29T05:18:29.055Z,99140.00
2023-11-29T05:20:56.174Z,99132.28
2023-11-29T05:23:23.101Z,99140.63
2023-11-29T05:25:49.938Z,99141.34
2023-11-29T05:28:16.804Z,99153.84
2023-11-29T05:30:43.718Z,99153.69
2023-11-29T05:33:11.001Z,99141.88
2023-11-29T05:35:38.333Z,99136.66
2023-11-29T05:38:05.294Z,99139.16
2023-11-29T05:40:32.127Z,99136.66
2023-11-29T05:42:58.956Z,99137.34
2023-11-29T05:45:26.631Z,99145.88
2023-11-29T05:47:53.668Z,99121.53
2023-11-29T05:50:20.925Z,99128.28
2023-11-29T05:52:47.779Z,99128.28
2023-11-29T05:55:16.757Z,99130.03
2023-11-29T05:57:46.559Z,99125.00
2023-11-29T06:00:24.397Z,99110.81
2023-11-29T06:03:01.029Z,99113.69
2023-11-29T06:05:29.003Z,99124.88
2023-11-29T06:07:56.140Z,99120.94
2023-11-29T06:10:23.116Z,99122.06
2023-11-29T06:12:50.100Z,99123.00
2023-11-29T06:15:17.053Z,99119.00
2023-11-29T06:17:44.233Z,99117.59
2023-11-29T06:20:13.157Z,99119.50
2023-11-29T06:22:40.315Z,99124.88
2023-11-29T06:25:09.260Z,99125.72
2023-11-29T06:27:37.174Z,99125.91
2023-11-29T06:30:05.476Z,99126.84
2023-11-29T06:32:33.468Z,99118.59
2023-11-29T06:35:00.505Z,99116.13
2023-11-29T06:37:27.465Z,99125.53
2023-11-29T06:39:55.371Z,99134.81
2023-11-29T06:42:22.557Z,99129.06
2023-11-29T06:44:50.231Z,99123.38
2023-11-29T06:47:18.638Z,99125.06
2023-11-29T06:49:46.173Z,99133.66
2023-11-29T06:52:14.035Z,99136.81
2023-11-29T06:54:41.218Z,99134.22
2023-11-29T06:57:08.298Z,99133.50
2023-11-29T06:59:36.833Z,99128.59
2023-11-29T07:02:06.737Z,99126.38
2023-11-29T07:04:35.070Z,99131.69
2023-11-29T07:07:03.296Z,99125.22
2023-11-29T07:09:31.263Z,99132.88
2023-11-29T07:11:59.252Z,99131.13
2023-11-29T07:14:26.322Z,99126.81
2023-11-29T07:16:53.500Z,99130.38
2023-11-29T07:19:20.784Z,99137.94
2023-11-29T07:21:47.720Z,99130.28
2023-11-29T07:24:14.659Z,99134.59
2023-11-29T07:26:41.710Z,99131.31
2023-11-29T07:29:09.614Z,99128.13
2023-11-29T07:31:37.147Z,99136.66
2023-11-29T07:34:04.394Z,99123.94
2023-11-29T07:36:32.961Z,99129.16
2023-11-29T07:39:00.860Z,99115.75
2023-11-29T07:41:28.382Z,99126.88
2023-11-29T07:43:55.789Z,99117.09
2023-11-29T07:46:22.854Z,99118.97
2023-11-29T07:48:49.797Z,99114.06
2023-11-29T07:51:16.694Z,99120.88
2023-11-29T07:53:46.202Z,99112.56
2023-11-29T07:56:13.749Z,99111.72
2023-11-29T07:58:40.954Z,99108.16
2023-11-29T08:01:08.506Z,99110.63
2023-11-29T08:03:35.978Z,99102.94
2023-11-29T08:06:03.312Z,99107.28
2023-11-29T08:08:30.437Z,99097.34
2023-11-29T08:10:57.425Z,99093.31
2023-11-29T08:13:24.888Z,99092.72
2023-11-29T08:15:51.804Z,99084.63
2023-11-29T08:18:19.239Z,99090.00
2023-11-29T08:20:46.395Z,99080.75
2023-11-29T08:23:13.324Z,99081.50
2023-11-29T08:25:40.900Z,99076.44
2023-11-29T08:28:07.835Z,99076.44
2023-11-29T08:30:34.832Z,99084.94
2023-11-29T08:33:02.067Z,99075.63
2023-11-29T08:35:29.818Z,99078.16
2023-11-29T08:37:57.593Z,99073.94
2023-11-29T08:40:27.395Z,99069.91
2023-11-29T08:42:54.532Z,99075.94
2023-11-29T08:45:23.311Z,99071.81
2023-11-29T08:47:50.484Z,99071.81
2023-11-29T08:50:17.451Z,99060.91
2023-11-29T08:52:45.250Z,99046.63
2023-11-29T08:55:12.410Z,99049.19
2023-11-29T08:57:40.309Z,99051.72
2023-11-29T09:00:07.958Z,99045.13
2023-11-29T09:02:35.045Z,99038.47
2023-11-29T09:05:04.376Z,99029.22
2023-11-29T09:07:32.758Z,99035.28
2023-11-29T09:09:59.753Z,99040.50
2023-11-29T09:12:27.034Z,99035.56
2023-11-29T09:14:57.538Z,99034.00
2023-11-29T09:17:25.594Z,99044.97
2023-11-29T09:19:55.102Z,99039.16
2023-11-29T09:22:25.694Z,99041.06
2023-11-29T09:24:52.533Z,99037.72
2023-11-29T09:27:19.945Z,99026.03
2023-11-29T09:29:47.057Z,99026.19
2023-11-29T09:32:14.070Z,99025.44
2023-11-29T09:34:41.098Z,99031.50
2023-11-29T09:37:07.914Z,99026.41
2023-11-29T09:39:34.861Z,99036.56
2023-11-29T09:42:04.135Z,99026.75
2023-11-29T09:44:31.934Z,99030.06
2023-11-29T09:47:00.580Z,99023.41
2023-11-29T09:49:29.490Z,99020.09
2023-11-29T09:51:57.105Z,99020.09
2023-11-29T09:54:25.897Z,99018.66
2023-11-29T09:56:53.051Z,99012.00
2023-11-29T09:59:23.122Z,99014.66
2023-11-29T10:01:52.561Z,99013.84
2023-11-29T10:04:19.483Z,99009.59
2023-11-29T10:06:46.936Z,99012.13
2023-11-29T10:09:14.402Z,99004.63
2023-11-29T10:11:42.806Z,99008.94
2023-11-29T10:14:11.841Z,99000.69
2023-11-29T10:16:39.038Z,98987.91
2023-11-29T10:19:10.958Z,98988.03
2023-11-29T10:21:42.823Z,98980.59
2023-11-29T10:24:09.821Z,98981.13
2023-11-29T10:26:36.709Z,98987.38
2023-11-29T10:29:03.722Z,98982.19
2023-11-29T10:31:31.531Z,98978.88
2023-11-29T10:33:59.132Z,98976.34
2023-11-29T10:36:27.536Z,98968.88
2023-11-29T10:39:09.839Z,98972.41
2023-11-29T10:41:46.047Z,98965.69
2023-11-29T10:44:15.413Z,98965.56
2023-11-29T10:46:42.688Z,98963.88
2023-11-29T10:49:30.995Z,98956.75
2023-11-29T10:51:58.266Z,98959.13
2023-11-29T10:54:39.614Z,98939.97
2023-11-29T10:57:10.563Z,98947.84
2023-11-29T10:59:42.714Z,98940.56
2023-11-29T11:02:09.755Z,98946.63
2023-11-29T11:04:44.425Z,98938.47
2023-11-29T11:07:46.793Z,98940.47
2023-11-29T11:10:23.272Z,98934.63
2023-11-29T11:12:51.151Z,98926.06
2023-11-29T11:15:24.792Z,98930.59
2023-11-29T11:18:05.116Z,98925.94
2023-11-29T11:20:51.551Z,98915.25
2023-11-29T11:23:24.106Z,98921.22
2023-11-29T11:25:57.810Z,98921.31
2023-11-29T11:28:33.885Z,98914.56
2023-11-29T11:31:08.923Z,98899.47
2023-11-29T11:34:08.138Z,98903.88
2023-11-29T11:36:35.282Z,98911.09
2023-11-29T11:39:03.075Z,98900.06
2023-11-29T11:41:29.985Z,98904.41
2023-11-29T11:43:56.890Z,98890.94
2023-11-29T11:46:24.453Z,98890.94
2023-11-29T11:48:51.481Z,98886.00
2023-11-29T11:51:21.864Z,98874.31
2023-11-29T11:53:48.932Z,98879.44
2023-11-29T11:56:20.263Z,98884.75
2023-11-29T11:58:47.651Z,98874.75
2023-11-29T12:01:15.419Z,98875.72
2023-11-29T12:03:42.733Z,98884.16
2023-11-29T12:06:10.592Z,98886.63
2023-11-29T12:08:38.814Z,98879.69
2023-11-29T12:11:08.772Z,98881.41
2023-11-29T12:13:36.110Z,98871.16
2023-11-29T12:16:16.278Z,98879.88
2023-11-29T12:18:43.666Z,98879.69
2023-11-29T12:21:10.864Z,98875.50
2023-11-29T12:23:42.892Z,98876.47
2023-11-29T12:26:15.001Z,98873.13
2023-11-29T12:28:43.272Z,98877.22
2023-11-29T12:31:10.888Z,98867.13
2023-11-29T12:33:39.505Z,98866.44
2023-11-29T12:36:07.023Z,98861.50
2023-11-29T12:38:34.739Z,98860.78
2023-11-29T12:41:01.615Z,98857.47
2023-11-29T12:43:28.553Z,98859.31
2023-11-29T12:45:57.564Z,98856.13
2023-11-29T12:48:26.972Z,98846.78
2023-11-29T12:50:54.272Z,98836.75
2023-11-29T12:53:21.203Z,98846.13
2023-11-29T12:55:49.395Z,98840.41
2023-11-29T12:58:16.377Z,98838.88
2023-11-29T13:00:46.372Z,98849.06
2023-11-29T13:03:13.538Z,98855.13
2023-11-29T13:05:40.491Z,98860.25
2023-11-29T13:08:07.924Z,98850.09
2023-11-29T13:10:34.870Z,98855.97
2023-11-29T13:13:02.584Z,98850.03
2023-11-29T13:15:29.580Z,98855.00
2023-11-29T13:17:57.130Z,98852.44
2023-11-29T13:20:24.138Z,98855.56
2023-11-29T13:22:53.074Z,98853.78
2023-11-29T13:25:20.020Z,98844.34
2023-11-29T13:27:47.181Z,98848.38
2023-11-29T13:30:14.793Z,98839.75
2023-11-29T13:32:41.887Z,98847.13
2023-11-29T13:35:11.451Z,98843.59
2023-11-29T13:37:39.310Z,98843.47
2023-11-29T13:40:07.570Z,98849.34
2023-11-29T13:42:34.523Z,98838.34
2023-11-29T13:45:05.361Z,98833.16
2023-11-29T13:47:32.740Z,98838.97
2023-11-29T13:49:59.797Z,98826.31
2023-11-29T13:52:28.273Z,98828.00
2023-11-29T13:54:55.917Z,98823.72
2023-11-29T13:57:23.311Z,98827.03
2023-11-29T13:59:50.478Z,98817.66
2023-11-29T14:02:19.130Z,98816.00
2023-11-29T14:04:48.417Z,98810.13
2023-11-29T14:07:16.126Z,98815.19
2023-11-29T14:09:43.983Z,98811.84
2023-11-29T14:12:11.125Z,98806.78
2023-11-29T14:14:38.278Z,98803.44
2023-11-29T14:17:05.577Z,98807.72
2023-11-29T14:19:32.548Z,98800.97
2023-11-29T14:21:59.554Z,98800.13
2023-11-29T14:24:26.406Z,98795.28
2023-11-29T14:26:55.370Z,98793.91
2023-11-29T14:29:23.782Z,98786.50
2023-11-29T14:31:51.969Z,98794.31
2023-11-29T14:34:19.636Z,98781.84
2023-11-29T14:36:48.111Z,98783.47
2023-11-29T14:39:15.507Z,98783.38
2023-11-29T14:41:44.644Z,98775.72
2023-11-29T14:44:12.317Z,98775.81
2023-11-29T14:46:39.560Z,98781.97
2023-11-29T14:49:13.577Z,98767.59
2023-11-29T14:51:46.838Z,98765.13
2023-11-29T14:54:13.747Z,98751.84
2023-11-29T14:56:40.789Z,98746.06
2023-11-29T14:59:07.720Z,98742.00
2023-11-29T15:01:35.798Z,98751.53
2023-11-29T15:04:03.044Z,98752.22
2023-11-29T15:06:29.997Z,98747.13
2023-11-29T15:08:56.973Z,98738.59
2023-11-29T15:11:23.914Z,98738.50
2023-11-29T15:13:51.357Z,98735.03
2023-11-29T15:16:18.489Z,98729.22
2023-11-29T15:18:46.976Z,98724.19
2023-11-29T15:21:14.081Z,98722.75
2023-11-29T15:23:40.956Z,98724.00
2023-11-29T15:26:08.036Z,98726.59
2023-11-29T15:28:37.965Z,98721.53
2023-11-29T15:31:05.624Z,98709.81
2023-11-29T15:33:32.762Z,98716.81
2023-11-29T15:36:01.180Z,98711.72
2023-11-29T15:38:28.363Z,98705.81
2023-11-29T15:40:55.242Z,98714.25
2023-11-29T15:43:22.632Z,98709.19
2023-11-29T15:45:49.995Z,98707.34
2023-11-29T15:48:17.160Z,98703.91
2023-11-29T15:50:44.216Z,98702.97
2023-11-29T15:53:12.282Z,98692.59
2023-11-29T15:55:39.472Z,98695.19
2023-11-29T15:58:06.438Z,98688.56
2023-11-29T16:00:34.816Z,98691.16
2023-11-29T16:03:01.911Z,98686.13
2023-11-29T16:05:29.081Z,98674.34
2023-11-29T16:07:55.993Z,98681.16
2023-11-29T16:10:22.878Z,98669.44
2023-11-29T16:12:49.829Z,98677.19
2023-11-29T16:15:16.834Z,98667.34
2023-11-29T16:17:43.873Z,98669.16
2023-11-29T16:20:11.146Z,98659.09
2023-11-29T16:22:38.064Z,98663.56
2023-11-29T16:25:06.576Z,98664.53
2023-11-29T16:27:37.173Z,98656.91
2023-11-29T16:30:06.495Z,98644.31
2023-11-29T16:32:34.452Z,98656.09
2023-11-29T16:35:01.769Z,98655.22
2023-11-29T16:37:31.321Z,98656.78
2023-11-29T16:39:58.795Z,98645.78
2023-11-29T16:42:25.903Z,98646.47
2023-11-29T16:44:53.003Z,98647.31
2023-11-29T16:47:20.200Z,98651.50
2023-11-29T16:49:47.664Z,98649.13
2023-11-29T16:52:14.687Z,98640.72
2023-11-29T16:54:41.693Z,98644.16
2023-11-29T16:57:09.157Z,98631.41
2023-11-29T16:59:37.381Z,98644.16
2023-11-29T17:02:04.572Z,98635.81
2023-11-29T17:04:31.679Z,98636.66
2023-11-29T17:06:58.676Z,98635.06
2023-11-29T17:09:25.629Z,98634.25
2023-11-29T17:11:53.631Z,98624.28
2023-11-29T17:14:20.654Z,98623.63
2023-11-29T17:16:48.190Z,98613.56
2023-11-29T17:19:15.203Z,98607.69
2023-11-29T17:21:42.103Z,98602.59
2023-11-29T17:24:09.057Z,98605.25
2023-11-29T17:26:37.235Z,98605.09
2023-11-29T17:29:04.194Z,98599.97
2023-11-29T17:31:31.759Z,98603.28
2023-11-29T17:33:58.685Z,98607.50
2023-11-29T17:36:25.698Z,98595.69
2023-11-29T17:38:52.819Z,98593.22
2023-11-29T17:41:19.737Z,98581.47
2023-11-29T17:43:46.668Z,98573.94
2023-11-29T17:46:13.626Z,98586.78
2023-11-29T17:48:40.615Z,98591.91
2023-11-29T17:51:08.509Z,98584.50
2023-11-29T17:53:35.512Z,98592.13
2023-11-29T17:56:02.587Z,98580.22
2023-11-29T17:58:29.457Z,98563.28
2023-11-29T18:00:56.495Z,98570.84
2023-11-29T18:03:24.194Z,98575.97
2023-11-29T18:05:51.793Z,98562.81
2023-11-29T18:08:19.129Z,98559.44
2023-11-29T18:10:53.682Z,98551.00
2023-11-29T18:13:22.174Z,98553.63
2023-11-29T18:15:49.600Z,98530.66
2023-11-29T18:18:17.364Z,98545.00
2023-11-29T18:20:54.014Z,98534.00
2023-11-29T18:23:22.127Z,98532.31
2023-11-29T18:25:58.813Z,98514.56
2023-11-29T18:28:28.916Z,98522.91
2023-11-29T18:30:56.184Z,98528.78
2023-11-29T18:33:24.365Z,98517.28
2023-11-29T18:35:51.506Z,98515.22
2023-11-29T18:38:18.437Z,98508.47
2023-11-29T18:40:47.480Z,98492.25
2023-11-29T18:43:14.820Z,98495.63
2023-11-29T18:45:41.827Z,98476.84
2023-11-29T18:48:10.783Z,98476.84
2023-11-29T18:50:38.815Z,98484.44
2023-11-29T18:53:06.187Z,98480.28
2023-11-29T18:55:33.759Z,98479.53
2023-11-29T18:58:00.783Z,98468.56
2023-11-29T19:00:27.721Z,98452.50
2023-11-29T19:02:55.033Z,98450.81
2023-11-29T19:05:22.408Z,98438.91
2023-11-29T19:07:49.337Z,98433.91
2023-11-29T19:10:16.197Z,98426.31
2023-11-29T19:12:43.232Z,98413.59
2023-11-29T19:15:10.584Z,98427.16
2023-11-29T19:17:37.678Z,98395.81
2023-11-29T19:20:05.695Z,98416.16
2023-11-29T19:22:33.996Z,98404.31
2023-11-29T19:25:01.126Z,98397.66
2023-11-29T19:27:28.464Z,98385.03
2023-11-29T19:29:55.642Z,98384.19
2023-11-29T19:32:23.199Z,98365.63
2023-11-29T19:34:50.366Z,98361.38
2023-11-29T19:37:17.539Z,98356.38
2023-11-29T19:39:44.592Z,98346.97
2023-11-29T19:42:11.550Z,98344.53
2023-11-29T19:44:40.094Z,98341.16
2023-11-29T19:47:13.150Z,98333.53
2023-11-29T19:49:43.048Z,98331.09
2023-11-29T19:52:10.516Z,98340.53
2023-11-29T19:54:40.339Z,98326.06
2023-11-29T19:57:07.711Z,98316.75
2023-11-29T19:59:34.959Z,98307.34
2023-11-29T20:02:02.135Z,98322.56
2023-11-29T20:04:29.524Z,98293.06
2023-11-29T20:06:56.662Z,98311.75
2023-11-29T20:09:23.891Z,98294.69
2023-11-29T20:11:51.254Z,98281.25
2023-11-29T20:14:22.673Z,98279.72
2023-11-29T20:16:56.336Z,98294.22
2023-11-29T20:19:23.946Z,98259.47
2023-11-29T20:21:51.171Z,98263.66
2023-11-29T20:24:18.404Z,98259.38
2023-11-29T20:26:45.764Z,98260.19
2023-11-29T20:29:12.940Z,98244.94
2023-11-29T20:31:40.118Z,98259.38
2023-11-29T20:34:16.958Z,98230.44
2023-11-29T20:36:48.538Z,98237.25
2023-11-29T20:39:15.716Z,98237.31
2023-11-29T20:41:49.481Z,98227.09
2023-11-29T20:44:17.938Z,98230.59
2023-11-29T20:46:45.594Z,98238.97
2023-11-29T20:49:12.757Z,98214.41
2023-11-29T20:51:42.445Z,98206.69
2023-11-29T20:54:09.744Z,98206.59
2023-11-29T20:56:37.967Z,98194.78
2023-11-29T20:59:05.189Z,98191.31
2023-11-29T21:01:32.358Z,98200.56
2023-11-29T21:03:59.991Z,98189.47
2023-11-29T21:06:27.471Z,98177.59
2023-11-29T21:08:54.689Z,98176.00
2023-11-29T21:11:23.377Z,98172.66
2023-11-29T21:13:51.201Z,98162.44
2023-11-29T21:16:18.744Z,98164.88
2023-11-29T21:18:46.044Z,98176.00
2023-11-29T21:21:13.735Z,98171.66
2023-11-29T21:23:41.445Z,98168.25
2023-11-29T21:26:08.666Z,98159.78
2023-11-29T21:28:37.003Z,98155.50
2023-11-29T21:31:04.416Z,98153.75
2023-11-29T21:33:31.761Z,98148.69
2023-11-29T21:35:58.978Z,98143.66
2023-11-29T21:38:26.100Z,98138.50
2023-11-29T21:40:56.173Z,98152.09
2023-11-29T21:43:23.302Z,98132.50
2023-11-29T21:45:50.424Z,98130.00
2023-11-29T21:48:17.652Z,98132.47
2023-11-29T21:50:45.111Z,98128.25
2023-11-29T21:53:12.558Z,98118.97
2023-11-29T21:55:39.888Z,98124.13
2023-11-29T21:58:07.211Z,98111.53
2023-11-29T22:00:37.181Z,98094.63
2023-11-29T22:03:04.613Z,98097.25
2023-11-29T22:05:31.519Z,98096.44
2023-11-29T22:07:58.461Z,98073.50
2023-11-29T22:10:27.446Z,98070.13
2023-11-29T22:12:54.455Z,98067.56
2023-11-29T22:15:21.383Z,98075.97
2023-11-29T22:17:48.475Z,98062.44
2023-11-29T22:20:15.496Z,98062.38
2023-11-29T22:22:42.348Z,98056.53
2023-11-29T22:25:09.483Z,98060.81
2023-11-29T22:27:37.124Z,98048.91
2023-11-29T22:30:04.350Z,98045.63
2023-11-29T22:32:32.758Z,98042.22
2023-11-29T22:34:59.613Z,98036.28
2023-11-29T22:37:26.772Z,98036.25
2023-11-29T22:39:53.634Z,98023.53
2023-11-29T22:42:20.744Z,98030.31
2023-11-29T22:44:48.956Z,98025.16
2023-11-29T22:47:16.130Z,98021.00
2023-11-29T22:49:43.003Z,98015.94
2023-11-29T22:52:09.930Z,98020.22
2023-11-29T22:54:36.830Z,98015.13
2023-11-29T22:57:04.261Z,98009.19
2023-11-29T22:59:31.160Z,98011.84
2023-11-29T23:01:58.247Z,98000.00
2023-11-29T23:04:25.340Z,97994.00
2023-11-29T23:06:52.359Z,97993.94
2023-11-29T23:09:19.310Z,97994.81
2023-11-29T23:11:46.941Z,97987.22
2023-11-29T23:14:13.848Z,97989.78
2023-11-29T23:16:40.817Z,97983.84
2023-11-29T23:19:07.846Z,97984.78
2023-11-29T23:21:34.826Z,97980.53
2023-11-29T23:24:01.692Z,97971.25
2023-11-29T23:26:28.588Z,97961.06
2023-11-29T23:28:55.481Z,97967.84
2023-11-29T23:31:22.377Z,97967.81
2023-11-29T23:33:49.511Z,97964.38
2023-11-29T23:36:16.479Z,97964.34
2023-11-29T23:38:43.556Z,97965.16
2023-11-29T23:41:13.652Z,97951.59
2023-11-29T23:43:40.491Z,97943.94
2023-11-29T23:46:07.773Z,97945.69
2023-11-29T23:48:34.652Z,97940.59
2023-11-29T23:51:01.659Z,97939.81
2023-11-29T23:53:28.631Z,97929.63
2023-11-29T23:55:55.503Z,97934.75
2023-11-29T23:58:22.371Z,97928.75
